Weather at Laurence G Hanscom Field

Public forecast

Using degrees Fahrenheit for public forecast. Weather courtesy of forecast.io.

Current aviation weather report (METAR) for Laurence G Hanscom Field

Retrieved 2021/03/05 04:51 UTC (1 hour ago):

KBED 050451Z AUTO 30018G23KT 10SM OVC110 M04/M14 A2967 RMK AO2 SLP065 T10441139 400391044

Aviation forecast (TAF) for Laurence G Hanscom Field

Forecast is more than 6 hours old.

Retrieved 2021/03/04 18:27 UTC (12 hours ago):

TAF KBED 041724Z 0418/0518 30013G27KT P6SM BKN050 FM042200 30013G26KT P6SM SCT050 FM050800 30009KT P6SM SCT100